Time;durP1;ratioP1;P1;durP2;ratioP2;P2;SDS_P1;SDS_P2;PMS_P1;PMS_P2;Temp;Humidity;BMP_temperature;BMP_pressure;BME280_temperature;BME280_humidity;BME280_pressure;Samples;Min_cycle;Max_cycle;Signal;HPM_P1;HPM_P2
2022/08/19 00:01:31;;;;;;;4.22;3.83;;;17.50;99.90;;;;;;5016891;28;20381;-79
2022/08/19 00:04:02;;;;;;;7.20;3.97;;;17.40;99.90;;;;;;5016825;28;20085;-78
2022/08/19 00:06:29;;;;;;;4.70;3.90;;;17.40;99.90;;;;;;5016726;28;20437;-78
2022/08/19 00:08:55;;;;;;;5.75;4.10;;;17.30;99.90;;;;;;5016550;28;20460;-77
2022/08/19 00:11:21;;;;;;;6.45;4.32;;;17.30;99.90;;;;;;5016720;28;20058;-78
2022/08/19 00:13:49;;;;;;;4.90;3.90;;;17.30;99.90;;;;;;5016927;28;20100;-76
2022/08/19 00:16:19;;;;;;;4.88;3.90;;;17.30;99.90;;;;;;5016622;28;20050;-77
2022/08/19 00:18:44;;;;;;;4.38;3.97;;;17.30;99.90;;;;;;5016617;28;20046;-76
2022/08/19 00:21:10;;;;;;;4.63;4.23;;;17.20;99.90;;;;;;5016423;28;20046;-76
2022/08/19 00:23:36;;;;;;;6.20;4.10;;;17.20;99.90;;;;;;5016415;28;20041;-79
2022/08/19 00:26:06;;;;;;;4.43;4.03;;;17.20;99.90;;;;;;5016518;28;20042;-78
2022/08/19 00:28:33;;;;;;;7.07;4.07;;;17.20;99.90;;;;;;5016341;28;20284;-79
2022/08/19 00:30:59;;;;;;;5.15;4.43;;;17.20;99.90;;;;;;5015253;28;20045;-78
2022/08/19 00:33:25;;;;;;;5.50;5.00;;;17.10;99.90;;;;;;5016297;28;20513;-77
2022/08/19 00:35:51;;;;;;;5.50;5.00;;;17.10;99.90;;;;;;5016194;28;20046;-77
2022/08/19 00:38:17;;;;;;;6.22;5.53;;;17.10;99.90;;;;;;5016001;28;20490;-77
2022/08/19 00:40:46;;;;;;;5.77;5.17;;;17.00;99.90;;;;;;5016200;28;20045;-78
2022/08/19 00:43:13;;;;;;;6.60;5.40;;;16.90;99.90;;;;;;5016251;28;20125;-77
2022/08/19 00:45:41;;;;;;;5.75;5.25;;;17.00;99.90;;;;;;5016050;28;20092;-78
2022/08/19 00:48:08;;;;;;;7.45;6.18;;;16.90;99.90;;;;;;5015682;28;20052;-75
2022/08/19 00:50:35;;;;;;;7.13;6.15;;;16.90;99.90;;;;;;5015995;28;20046;-78
2022/08/19 00:53:03;;;;;;;7.15;6.30;;;16.90;99.90;;;;;;5015470;28;20392;-79
2022/08/19 00:55:32;;;;;;;8.57;6.70;;;16.90;99.90;;;;;;5015882;28;20096;-77
2022/08/19 00:58:06;;;;;;;8.23;6.93;;;16.80;99.90;;;;;;5015671;28;20398;-75
2022/08/19 01:00:36;;;;;;;8.15;7.18;;;16.80;99.90;;;;;;5015873;28;20042;-77
2022/08/19 01:03:06;;;;;;;8.65;7.20;;;16.80;99.90;;;;;;5015693;28;20440;-78
2022/08/19 01:05:32;;;;;;;9.65;8.18;;;16.80;99.90;;;;;;5015696;28;20551;-78
2022/08/19 01:08:01;;;;;;;10.73;8.13;;;16.80;99.90;;;;;;5015675;28;20057;-76
2022/08/19 01:10:30;;;;;;;10.27;9.00;;;16.80;99.90;;;;;;5015537;28;20104;-77
2022/08/19 01:12:59;;;;;;;10.35;9.00;;;16.70;99.90;;;;;;5015306;28;20054;-78
2022/08/19 01:15:30;;;;;;;11.32;10.13;;;16.70;99.90;;;;;;5015464;28;20061;-78
2022/08/19 01:17:59;;;;;;;11.25;9.45;;;16.70;99.90;;;;;;5015536;28;20088;-76
2022/08/19 01:20:25;;;;;;;11.05;9.95;;;16.60;99.90;;;;;;5015371;28;20072;-77
2022/08/19 01:22:56;;;;;;;10.73;9.57;;;16.70;99.90;;;;;;5015310;28;20459;-79
2022/08/19 01:25:28;;;;;;;11.77;10.57;;;16.60;99.90;;;;;;5015181;28;20549;-78
2022/08/19 01:27:55;;;;;;;10.55;9.55;;;16.60;99.90;;;;;;5015273;28;20038;-78
2022/08/19 01:30:25;;;;;;;11.40;10.00;;;16.60;99.90;;;;;;5014915;28;20089;-77
2022/08/19 01:32:52;;;;;;;10.98;9.88;;;16.60;99.90;;;;;;5013728;28;20034;-79
2022/08/19 01:35:18;;;;;;;11.27;9.30;;;16.60;99.90;;;;;;5015047;28;20048;-76
2022/08/19 01:37:46;;;;;;;10.87;9.10;;;16.60;99.90;;;;;;5014778;28;20041;-76
2022/08/19 01:40:12;;;;;;;10.63;9.55;;;16.50;99.90;;;;;;5014999;28;20050;-77
2022/08/19 01:42:38;;;;;;;10.55;9.55;;;16.40;99.90;;;;;;5014875;28;20081;-76
2022/08/19 01:45:05;;;;;;;9.60;8.70;;;16.40;99.90;;;;;;5014993;28;20108;-78
2022/08/19 01:47:31;;;;;;;10.40;9.00;;;16.40;99.90;;;;;;5014794;28;20050;-77
2022/08/19 01:49:58;;;;;;;9.53;8.63;;;16.30;99.90;;;;;;5013619;28;20482;-78
2022/08/19 01:52:23;;;;;;;9.95;8.95;;;16.20;99.90;;;;;;5013899;28;20038;-78
2022/08/19 01:54:49;;;;;;;11.53;9.97;;;16.20;99.90;;;;;;5014814;28;20382;-78
2022/08/19 01:57:15;;;;;;;10.93;9.83;;;16.20;99.90;;;;;;5014713;28;20053;-78
2022/08/19 01:59:44;;;;;;;11.23;9.27;;;16.10;99.90;;;;;;5014781;28;20099;-78
2022/08/19 02:02:10;;;;;;;10.38;9.30;;;16.10;99.90;;;;;;5013681;28;20092;-79
2022/08/19 02:04:37;;;;;;;13.30;9.93;;;16.20;99.90;;;;;;5014055;28;20481;-77
2022/08/19 02:07:03;;;;;;;11.63;9.52;;;16.20;99.90;;;;;;5014338;28;20042;-77
2022/08/19 02:09:31;;;;;;;11.33;10.23;;;16.10;99.90;;;;;;5014718;28;20101;-78
2022/08/19 02:11:57;;;;;;;11.88;10.57;;;16.10;99.90;;;;;;5014408;28;20054;-77
2022/08/19 02:14:22;;;;;;;10.53;9.30;;;16.10;99.90;;;;;;5014906;28;20624;-76
2022/08/19 02:16:48;;;;;;;11.90;9.67;;;16.10;99.90;;;;;;5014504;28;20121;-77
2022/08/19 02:19:14;;;;;;;10.87;9.87;;;16.10;99.90;;;;;;5014379;28;20398;-78
2022/08/19 02:21:39;;;;;;;10.23;9.23;;;16.10;99.90;;;;;;5014307;28;20038;-78
2022/08/19 02:24:05;;;;;;;11.23;10.13;;;16.00;99.90;;;;;;5014301;28;20062;-78
2022/08/19 02:26:32;;;;;;;11.37;10.23;;;16.00;99.90;;;;;;5013051;28;20127;-77
2022/08/19 02:28:57;;;;;;;;;;;16.00;99.90;;;;;;5014715;28;20050;-79
2022/08/19 02:31:24;;;;;;;11.60;10.40;;;16.00;99.90;;;;;;5014771;28;19921;-75
2022/08/19 02:33:51;;;;;;;12.18;10.50;;;15.90;99.90;;;;;;5014232;28;20394;-76
2022/08/19 02:36:18;;;;;;;12.13;10.60;;;16.00;99.90;;;;;;5014140;28;20100;-76
2022/08/19 02:38:44;;;;;;;12.27;10.20;;;16.00;99.90;;;;;;5014121;28;20060;-79
2022/08/19 02:41:32;;;;;;;11.38;10.27;;;15.90;99.90;;;;;;5014258;28;20049;-78
2022/08/19 02:44:00;;;;;;;10.93;9.93;;;15.90;99.90;;;;;;5014084;28;20042;-78
2022/08/19 02:46:28;;;;;;;11.10;9.90;;;15.90;99.90;;;;;;5014063;28;20474;-77
2022/08/19 02:48:56;;;;;;;12.05;10.20;;;16.00;99.90;;;;;;5013849;28;20100;-77
2022/08/19 02:51:31;;;;;;;9.88;8.88;;;15.90;99.90;;;;;;5013958;28;20426;-78
2022/08/19 02:53:56;;;;;;;10.90;9.70;;;15.90;99.90;;;;;;5014050;28;20057;-76
2022/08/19 02:56:24;;;;;;;12.67;9.50;;;16.10;99.90;;;;;;5013959;28;20045;-78
2022/08/19 02:58:50;;;;;;;10.63;9.52;;;15.90;99.90;;;;;;5012743;28;20068;-75
2022/08/19 03:01:25;;;;;;;10.63;9.47;;;15.90;99.90;;;;;;5014032;28;20537;-79
2022/08/19 03:03:52;;;;;;;10.27;9.27;;;16.00;99.90;;;;;;5013992;28;20099;-78
2022/08/19 03:06:18;;;;;;;10.25;9.25;;;15.80;99.90;;;;;;5013687;28;20073;-78
2022/08/19 03:08:46;;;;;;;9.77;8.77;;;15.80;99.90;;;;;;5013815;28;20057;-76
2022/08/19 03:11:17;;;;;;;9.77;8.77;;;15.80;99.90;;;;;;5013662;28;20065;-77
2022/08/19 03:13:43;;;;;;;9.18;8.18;;;15.80;99.90;;;;;;5013781;28;20124;-78
2022/08/19 03:16:09;;;;;;;9.30;8.40;;;15.70;99.90;;;;;;5013236;28;20143;-77
2022/08/19 03:18:35;;;;;;;10.35;8.45;;;15.80;99.90;;;;;;5017638;28;20486;-78
2022/08/19 03:21:00;;;;;;;9.40;8.47;;;15.70;99.90;;;;;;5017578;28;20104;-76
2022/08/19 03:23:26;;;;;;;9.50;8.30;;;15.70;99.90;;;;;;5018024;28;20046;-79
2022/08/19 03:25:53;;;;;;;9.30;8.30;;;15.80;99.90;;;;;;5017623;28;20458;-78
2022/08/19 03:28:20;;;;;;;9.07;8.07;;;15.60;99.90;;;;;;5017561;28;20092;-76
2022/08/19 03:30:58;;;;;;;;;;;15.60;99.90;;;;;;5017885;28;20471;-77
2022/08/19 03:33:25;;;;;;;9.85;8.60;;;15.60;99.90;;;;;;5016252;28;20424;-77
2022/08/19 03:36:11;;;;;;;10.02;8.45;;;15.60;99.90;;;;;;5017388;28;20046;-78
2022/08/19 03:38:40;;;;;;;8.75;7.93;;;15.50;99.90;;;;;;5016174;28;20042;-77
2022/08/19 03:41:08;;;;;;;9.32;8.30;;;15.50;99.90;;;;;;5017370;28;20054;-77
2022/08/19 03:43:36;;;;;;;9.32;8.43;;;15.40;99.90;;;;;;5017304;28;20038;-79
2022/08/19 03:46:08;;;;;;;9.85;8.85;;;15.40;99.90;;;;;;5016045;28;20104;-76
2022/08/19 03:48:35;;;;;;;9.73;8.73;;;15.40;99.90;;;;;;5017800;28;20065;-78
2022/08/19 03:51:02;;;;;;;10.73;9.63;;;15.30;99.90;;;;;;5017378;28;20049;-78
2022/08/19 03:53:29;;;;;;;11.02;9.73;;;15.40;99.90;;;;;;5015878;28;20054;-76
2022/08/19 03:55:57;;;;;;;10.60;9.50;;;15.40;99.90;;;;;;5017193;28;20056;-78
2022/08/19 03:58:23;;;;;;;9.70;8.48;;;15.30;99.90;;;;;;5016926;28;20128;-76
2022/08/19 04:00:49;;;;;;;10.73;9.50;;;15.30;99.90;;;;;;5016897;28;20088;-79
2022/08/19 04:03:15;;;;;;;11.13;9.93;;;15.30;99.90;;;;;;5016829;28;20053;-79
2022/08/19 04:05:41;;;;;;;10.55;9.48;;;15.20;99.90;;;;;;5017172;28;20049;-77
2022/08/19 04:08:06;;;;;;;10.93;9.30;;;15.10;99.90;;;;;;5016876;28;20046;-78
2022/08/19 04:10:36;;;;;;;12.23;9.50;;;15.00;99.90;;;;;;5016579;28;20045;-78
2022/08/19 04:13:05;;;;;;;10.35;8.85;;;15.00;99.90;;;;;;5016707;28;20105;-79
2022/08/19 04:15:35;;;;;;;9.68;8.68;;;15.00;99.90;;;;;;5016841;28;20533;-77
2022/08/19 04:18:01;;;;;;;9.85;8.73;;;15.00;99.90;;;;;;5015681;28;20099;-75
2022/08/19 04:20:27;;;;;;;9.83;8.33;;;15.10;99.90;;;;;;5016595;28;20046;-78
2022/08/19 04:22:52;;;;;;;8.82;8.02;;;15.10;99.90;;;;;;5016511;28;20380;-78
2022/08/19 04:25:18;;;;;;;11.80;8.43;;;15.10;99.90;;;;;;5016504;28;20482;-78
2022/08/19 04:27:46;;;;;;;12.23;8.43;;;15.10;99.90;;;;;;5015510;28;20052;-76
2022/08/19 04:30:13;;;;;;;8.95;7.85;;;15.10;99.90;;;;;;5016508;28;20512;-79
2022/08/19 04:32:39;;;;;;;9.52;7.65;;;15.10;99.90;;;;;;5016371;28;20046;-77
2022/08/19 04:35:05;;;;;;;9.13;8.20;;;15.10;99.90;;;;;;5016384;28;20052;-75
2022/08/19 04:37:33;;;;;;;10.37;8.30;;;15.00;99.90;;;;;;5016287;28;20048;-78
2022/08/19 04:42:44;;;;;;;9.60;8.65;;;15.00;99.90;;;;;;5016141;28;20136;-77
2022/08/19 04:45:13;;;;;;;9.85;8.82;;;15.00;99.90;;;;;;5016421;28;20081;-78
2022/08/19 04:47:42;;;;;;;9.93;8.85;;;15.00;99.90;;;;;;5016069;28;20141;-76
2022/08/19 04:50:11;;;;;;;12.15;8.93;;;15.00;99.90;;;;;;5015934;28;20093;-78
2022/08/19 04:52:43;;;;;;;10.02;9.02;;;15.00;99.90;;;;;;5015897;28;20042;-76
2022/08/19 04:55:10;;;;;;;10.93;9.57;;;15.00;99.90;;;;;;5014744;28;20046;-77
2022/08/19 04:57:39;;;;;;;12.48;9.18;;;15.00;99.90;;;;;;5015860;28;20489;-76
2022/08/19 05:00:07;;;;;;;10.65;9.60;;;15.00;99.90;;;;;;5015771;28;20050;-79
2022/08/19 05:02:32;;;;;;;11.90;9.75;;;15.10;99.90;;;;;;5015597;28;20128;-77
2022/08/19 05:05:00;;;;;;;10.90;9.80;;;15.10;99.90;;;;;;5015683;28;20163;-78
2022/08/19 05:07:26;;;;;;;10.57;9.55;;;15.10;99.90;;;;;;5015285;28;20042;-78
2022/08/19 05:09:55;;;;;;;12.60;9.60;;;15.10;99.90;;;;;;5015911;28;20414;-77
2022/08/19 05:12:24;;;;;;;12.02;9.60;;;15.10;99.90;;;;;;5015735;28;20065;-77
2022/08/19 05:14:51;;;;;;;11.07;9.93;;;15.10;99.90;;;;;;4998049;28;20053;-76
2022/08/19 05:17:17;;;;;;;11.93;9.93;;;15.10;99.90;;;;;;5015486;28;20046;-75
2022/08/19 05:22:34;;;;;;;12.30;10.00;;;15.10;99.90;;;;;;5015707;28;20046;-76
2022/08/19 05:25:03;;;;;;;10.82;9.73;;;15.10;99.90;;;;;;5015338;28;20042;-77
2022/08/19 05:27:29;;;;;;;12.43;11.05;;;15.00;99.90;;;;;;5015291;28;20572;-77
2022/08/19 05:29:57;;;;;;;11.63;10.43;;;15.10;99.90;;;;;;5014135;28;20131;-76
2022/08/19 05:32:23;;;;;;;12.45;11.13;;;15.00;99.90;;;;;;5014925;28;20141;-77
2022/08/19 05:34:49;;;;;;;16.50;12.15;;;15.10;99.90;;;;;;5014931;28;20133;-78
2022/08/19 05:37:14;;;;;;;14.10;11.63;;;15.00;99.90;;;;;;5015147;28;20142;-76
2022/08/19 05:39:40;;;;;;;14.30;11.77;;;15.10;99.90;;;;;;5015055;28;20125;-76
2022/08/19 05:42:09;;;;;;;15.73;12.70;;;15.10;99.90;;;;;;5015004;28;20042;-77
2022/08/19 05:44:39;;;;;;;14.35;12.85;;;15.10;99.90;;;;;;5013863;28;20141;-79
2022/08/19 05:47:06;;;;;;;13.98;12.50;;;15.20;99.90;;;;;;5014897;28;20077;-76
2022/08/19 05:49:33;;;;;;;17.17;14.05;;;15.20;99.90;;;;;;5014849;28;20088;-75
2022/08/19 05:52:05;;;;;;;22.90;16.48;;;15.30;99.90;;;;;;5014928;28;20450;-75
2022/08/19 05:54:35;;;;;;;20.23;17.02;;;15.40;99.90;;;;;;5014994;28;20046;-77
2022/08/19 05:57:02;;;;;;;20.02;16.75;;;15.40;99.90;;;;;;5013716;28;20104;-78
2022/08/19 05:59:28;;;;;;;18.55;16.52;;;15.50;99.90;;;;;;5014764;28;20474;-76
2022/08/19 06:01:55;;;;;;;21.03;18.20;;;15.60;99.90;;;;;;5014502;28;20124;-80
2022/08/19 06:04:21;;;;;;;20.77;17.65;;;15.70;99.90;;;;;;5014671;28;20082;-75
2022/08/19 06:06:50;;;;;;;19.70;17.10;;;15.70;99.90;;;;;;5014637;28;20053;-78
2022/08/19 06:09:15;;;;;;;20.27;16.55;;;15.80;99.90;;;;;;5014647;28;20089;-77
2022/08/19 06:11:47;;;;;;;19.30;17.23;;;15.90;99.90;;;;;;5014460;28;20093;-78
2022/08/19 06:14:18;;;;;;;19.58;16.92;;;16.00;99.90;;;;;;5014549;28;20104;-81
2022/08/19 06:16:44;;;;;;;20.75;18.00;;;16.00;99.90;;;;;;5015060;28;20045;-81
2022/08/19 06:19:15;;;;;;;20.48;18.27;;;16.20;99.90;;;;;;5014522;28;20540;-80
2022/08/19 06:21:43;;;;;;;25.65;18.50;;;16.20;99.90;;;;;;5014454;28;20045;-83
2022/08/19 06:24:11;;;;;;;22.35;18.27;;;16.30;99.90;;;;;;5013522;28;20081;-82
2022/08/19 06:26:40;;;;;;;19.75;17.35;;;16.50;99.90;;;;;;5013134;28;20050;-80
2022/08/19 06:29:07;;;;;;;21.13;17.48;;;16.60;99.90;;;;;;4996976;28;20057;-80
2022/08/19 06:31:35;;;;;;;20.83;17.30;;;16.80;99.90;;;;;;5013625;28;20045;-83
2022/08/19 06:34:02;;;;;;;20.58;16.27;;;17.00;99.90;;;;;;5014188;28;20410;-82
2022/08/19 06:36:36;;;;;;;20.00;17.17;;;17.10;99.90;;;;;;5014181;28;20049;-83
2022/08/19 06:39:08;;;;;;;19.77;15.45;;;17.40;99.90;;;;;;5014141;28;20053;-82
2022/08/19 06:41:39;;;;;;;17.58;15.70;;;17.50;99.90;;;;;;5012989;28;20081;-82
2022/08/19 06:44:05;;;;;;;16.55;14.82;;;17.80;99.90;;;;;;5012800;28;20054;-83
2022/08/19 06:46:31;;;;;;;17.27;15.25;;;17.80;99.90;;;;;;5013005;28;20088;-85
2022/08/19 06:48:58;;;;;;;16.90;15.10;;;18.00;99.90;;;;;;5013161;28;20082;-84
2022/08/19 06:51:24;;;;;;;15.63;14.02;;;18.20;99.90;;;;;;4996704;28;20166;-85
2022/08/19 06:53:52;;;;;;;17.00;13.90;;;18.40;99.90;;;;;;4997400;28;20506;-86
2022/08/19 06:56:21;;;;;;;15.80;13.20;;;18.50;99.90;;;;;;4996268;28;20390;-86
2022/08/19 06:58:53;;;;;;;14.88;12.82;;;18.70;99.90;;;;;;4997465;28;20394;-90
2022/08/19 07:01:20;;;;;;;16.55;13.27;;;18.90;99.90;;;;;;4996557;28;20108;-85
2022/08/19 07:03:46;;;;;;;15.07;13.07;;;19.00;99.90;;;;;;4996915;28;20390;-86
2022/08/19 07:06:22;;;;;;;14.13;12.70;;;19.20;99.90;;;;;;5013169;28;20129;-85
2022/08/19 07:08:49;;;;;;;13.57;11.68;;;19.30;99.90;;;;;;4996627;28;20046;-88
2022/08/19 07:11:21;;;;;;;14.93;12.33;;;19.50;99.90;;;;;;5013917;28;20416;-85
2022/08/19 07:13:48;;;;;;;13.27;11.63;;;19.60;99.90;;;;;;5013892;28;20060;-85
2022/08/19 07:16:17;;;;;;;12.45;11.25;;;19.60;99.90;;;;;;5013000;28;20553;-82
2022/08/19 07:18:44;;;;;;;12.52;11.20;;;19.90;99.90;;;;;;4996299;28;20060;-84
2022/08/19 07:21:22;;;;;;;14.00;12.13;;;20.00;99.90;;;;;;5012143;28;20048;-85
2022/08/19 07:23:49;;;;;;;13.40;11.57;;;20.10;99.90;;;;;;5014248;28;20129;-87
2022/08/19 07:26:17;;;;;;;13.73;11.75;;;20.20;99.90;;;;;;5012998;28;20053;-85
2022/08/19 07:28:44;;;;;;;12.38;11.18;;;20.30;99.90;;;;;;5014060;28;20050;-84
2022/08/19 07:31:16;;;;;;;11.50;10.35;;;20.50;99.90;;;;;;5013616;28;20125;-79
2022/08/19 07:33:42;;;;;;;14.18;12.50;;;20.40;99.90;;;;;;5012355;28;20065;-82
2022/08/19 07:36:12;;;;;;;14.02;12.00;;;20.40;99.90;;;;;;5011874;28;20048;-79
2022/08/19 07:38:40;;;;;;;12.35;10.27;;;20.40;99.90;;;;;;5013005;28;20104;-82
2022/08/19 07:41:07;;;;;;;13.25;11.63;;;20.40;99.90;;;;;;5013456;28;20137;-82
2022/08/19 07:43:33;;;;;;;12.82;11.18;;;20.40;99.90;;;;;;5013417;28;20496;-78
2022/08/19 07:45:58;;;;;;;12.48;11.18;;;20.40;99.90;;;;;;5013345;28;20042;-77
2022/08/19 07:48:26;;;;;;;13.00;11.63;;;20.50;99.90;;;;;;5012450;28;20138;-79
2022/08/19 07:50:56;;;;;;;13.05;11.75;;;20.60;99.90;;;;;;5013071;28;20049;-76
2022/08/19 07:53:23;;;;;;;12.27;10.98;;;20.70;99.90;;;;;;5013294;28;20046;-77
2022/08/19 07:55:50;;;;;;;12.63;11.32;;;20.80;99.90;;;;;;5013386;28;20527;-77
2022/08/19 07:58:18;;;;;;;13.55;11.07;;;20.80;99.90;;;;;;5013428;28;20042;-76
2022/08/19 08:00:46;;;;;;;13.15;11.57;;;20.90;99.90;;;;;;5013954;28;20085;-75
2022/08/19 08:03:14;;;;;;;13.13;11.75;;;21.00;99.90;;;;;;5014139;28;20120;-78
2022/08/19 08:11:05;;;;;;;11.68;10.48;;;21.40;99.90;;;;;;5016786;28;20092;-78
2022/08/19 08:13:32;;;;;;;11.27;10.17;;;21.50;99.90;;;;;;5016626;28;20081;-77
2022/08/19 08:15:58;;;;;;;10.75;9.07;;;21.60;99.90;;;;;;5016666;28;20054;-78
2022/08/19 08:18:25;;;;;;;11.27;10.10;;;21.70;99.90;;;;;;5016678;28;20057;-78
2022/08/19 08:20:50;;;;;;;12.68;9.80;;;21.80;99.90;;;;;;5016573;28;20049;-78
2022/08/19 08:23:22;;;;;;;10.40;9.30;;;22.00;99.90;;;;;;5016477;28;20060;-77
2022/08/19 08:25:48;;;;;;;10.57;9.48;;;22.20;99.90;;;;;;5016596;28;20042;-77
2022/08/19 08:28:15;;;;;;;10.60;9.50;;;22.30;99.90;;;;;;5016170;28;20490;-78
2022/08/19 08:30:43;;;;;;;9.85;8.35;;;22.40;99.90;;;;;;5016433;28;20050;-79
2022/08/19 08:33:09;;;;;;;11.50;10.23;;;22.60;99.90;;;;;;5016694;28;20096;-78
2022/08/19 08:35:35;;;;;;;11.25;10.10;;;22.80;99.90;;;;;;5016641;28;20196;-79
2022/08/19 08:38:03;;;;;;;10.80;9.65;;;22.80;99.90;;;;;;5015996;28;20560;-76
2022/08/19 08:40:50;;;;;;;12.60;10.38;;;22.90;99.90;;;;;;5016196;28;20057;-79
2022/08/19 08:43:35;;;;;;;12.47;10.53;;;23.10;99.90;;;;;;5016075;28;20049;-78
2022/08/19 08:46:04;;;;;;;14.02;10.90;;;23.20;99.90;;;;;;5015363;28;20409;-78
2022/08/19 08:48:35;;;;;;;12.95;11.07;;;23.30;99.90;;;;;;5016068;28;20045;-79
2022/08/19 08:51:07;;;;;;;14.00;12.55;;;23.40;99.90;;;;;;5015920;28;20053;-78
2022/08/19 08:53:35;;;;;;;15.05;12.27;;;23.50;99.90;;;;;;5016062;28;20129;-77
2022/08/19 08:56:05;;;;;;;14.98;12.68;;;23.60;99.90;;;;;;5015914;28;20120;-78
2022/08/19 08:59:03;;;;;;;14.85;12.90;;;23.60;99.90;;;;;;5016175;28;20049;-78
2022/08/19 09:01:29;;;;;;;12.43;11.13;;;23.70;99.90;;;;;;5015686;28;20050;-78
2022/08/19 09:03:54;;;;;;;11.93;10.83;;;23.90;99.90;;;;;;5015755;28;20183;-78
2022/08/19 09:06:38;;;;;;;12.77;11.57;;;23.90;99.90;;;;;;5014911;28;20049;-78
2022/08/19 09:09:16;;;;;;;14.35;12.85;;;24.00;99.90;;;;;;5015984;28;20053;-77
2022/08/19 09:12:11;;;;;;;12.88;11.23;;;24.10;99.90;;;;;;5015845;28;20054;-78
2022/08/19 09:14:52;;;;;;;11.93;10.73;;;24.10;99.90;;;;;;5015543;28;20054;-77
2022/08/19 09:17:20;;;;;;;11.20;10.10;;;24.20;99.90;;;;;;5015564;28;20436;-77
2022/08/19 09:19:51;;;;;;;12.05;10.00;;;24.20;99.90;;;;;;5015536;28;20172;-78
2022/08/19 09:22:18;;;;;;;10.85;9.75;;;24.20;99.90;;;;;;5015412;28;20056;-77
2022/08/19 09:24:43;;;;;;;9.57;8.48;;;24.30;99.90;;;;;;5015820;28;20053;-78
2022/08/19 09:27:09;;;;;;;8.43;7.70;;;24.30;99.90;;;;;;5015367;28;20046;-77
2022/08/19 09:29:34;;;;;;;9.23;8.37;;;24.50;99.90;;;;;;5014115;28;20046;-76
2022/08/19 09:32:00;;;;;;;10.87;9.67;;;24.50;99.90;;;;;;5015255;28;20042;-78
2022/08/19 09:34:25;;;;;;;9.83;8.60;;;24.50;99.90;;;;;;5015281;28;20501;-76
2022/08/19 09:36:52;;;;;;;10.33;7.80;;;24.60;99.90;;;;;;5015275;28;20125;-76
2022/08/19 09:39:18;;;;;;;10.27;8.50;;;24.70;99.90;;;;;;5015261;28;20474;-78
2022/08/19 09:41:44;;;;;;;9.83;7.60;;;24.80;99.90;;;;;;5014256;28;20139;-77
2022/08/19 09:44:11;;;;;;;9.10;7.73;;;24.80;99.90;;;;;;5015006;28;20052;-78
2022/08/19 09:46:37;;;;;;;9.02;7.35;;;24.90;99.90;;;;;;5015017;28;20048;-78
2022/08/19 09:49:03;;;;;;;10.33;7.57;;;25.00;99.90;;;;;;5014888;28;20045;-76
2022/08/19 09:51:29;;;;;;;8.07;7.28;;;25.10;99.90;;;;;;5014986;28;20048;-77
2022/08/19 09:53:59;;;;;;;7.73;5.87;;;25.10;99.90;;;;;;5014782;28;20548;-79
2022/08/19 09:56:25;;;;;;;8.55;7.60;;;25.20;99.90;;;;;;5015010;28;20057;-79
2022/08/19 09:58:50;;;;;;;6.70;5.77;;;25.30;99.90;;;;;;5014232;28;20129;-81
2022/08/19 10:01:20;;;;;;;7.60;6.90;;;25.30;99.90;;;;;;4996976;28;20112;-79
2022/08/19 10:03:49;;;;;;;7.28;6.57;;;25.40;99.90;;;;;;5014424;28;20064;-82
2022/08/19 10:06:16;;;;;;;8.35;6.38;;;25.50;99.90;;;;;;5014595;28;20045;-81
2022/08/19 10:08:41;;;;;;;;;;;25.50;99.90;;;;;;5015090;28;20116;-82
2022/08/19 10:11:08;;;;;;;6.57;5.82;;;25.60;99.90;;;;;;4997042;28;19976;-84
2022/08/19 10:13:34;;;;;;;9.27;7.45;;;25.60;99.90;;;;;;4997401;28;20093;-83
2022/08/19 10:16:13;;;;;;;9.73;7.38;;;25.70;99.90;;;;;;5014224;28;20049;-81
2022/08/19 10:18:42;;;;;;;10.02;8.98;;;25.80;99.90;;;;;;5013363;28;20394;-78
2022/08/19 10:21:14;;;;;;;11.30;10.10;;;25.80;99.90;;;;;;5012933;28;20072;-81
2022/08/19 10:23:44;;;;;;;9.48;7.97;;;25.80;99.90;;;;;;5014248;28;20047;-80
2022/08/19 10:26:12;;;;;;;10.52;6.30;;;25.80;99.90;;;;;;5013441;28;20046;-81
2022/08/19 10:28:38;;;;;;;10.02;7.18;;;26.00;99.90;;;;;;5013441;28;20065;-79
2022/08/19 10:31:10;;;;;;;7.00;6.30;;;26.10;99.90;;;;;;5013914;28;20498;-81
2022/08/19 10:33:36;;;;;;;7.90;6.57;;;26.10;99.90;;;;;;5013047;28;20123;-85
2022/08/19 10:36:05;;;;;;;8.05;7.05;;;26.20;99.90;;;;;;5013079;28;20490;-86
2022/08/19 10:38:31;;;;;;;8.52;7.57;;;26.30;99.90;;;;;;4996692;28;20049;-82
2022/08/19 10:40:57;;;;;;;7.33;5.83;;;26.40;99.90;;;;;;5012840;28;20050;-83
2022/08/19 10:43:24;;;;;;;8.00;5.93;;;26.40;99.90;;;;;;5012734;28;20037;-81
2022/08/19 10:45:58;;;;;;;7.30;5.95;;;26.60;99.90;;;;;;5013933;28;20407;-79
2022/08/19 10:48:23;;;;;;;5.85;5.25;;;26.60;99.90;;;;;;5012727;28;20052;-79
2022/08/19 10:53:33;;;;;;;8.98;7.80;;;26.70;99.90;;;;;;5013705;28;20050;-82
2022/08/19 10:58:44;;;;;;;8.18;5.38;;;26.80;99.90;;;;;;5012739;28;20049;-81
2022/08/19 11:01:10;;;;;;;7.70;4.78;;;26.80;99.90;;;;;;5012902;28;20486;-82
2022/08/19 11:03:35;;;;;;;6.77;5.17;;;26.80;99.90;;;;;;5012606;28;20131;-82
2022/08/19 11:06:04;;;;;;;9.67;8.73;;;26.90;99.90;;;;;;5013685;28;20768;-85
2022/08/19 11:08:30;;;;;;;9.02;6.68;;;27.00;99.90;;;;;;4996456;28;20050;-86
2022/08/19 11:11:00;;;;;;;8.02;6.50;;;27.10;99.90;;;;;;4996061;28;20057;-83
2022/08/19 11:13:28;;;;;;;7.45;6.70;;;27.30;99.90;;;;;;5012903;28;20527;-82
2022/08/19 11:16:14;;;;;;;7.43;6.38;;;27.30;99.90;;;;;;5013668;28;20046;-83
2022/08/19 11:18:49;;;;;;;8.10;6.37;;;27.50;99.90;;;;;;5013647;28;20046;-78
2022/08/19 11:21:22;;;;;;;7.97;6.13;;;27.60;99.90;;;;;;5013645;28;20064;-80
2022/08/19 11:23:51;;;;;;;8.18;5.85;;;27.40;99.90;;;;;;5013635;28;20056;-82
2022/08/19 11:26:18;;;;;;;8.48;6.60;;;27.20;99.90;;;;;;5013589;28;20050;-81
2022/08/19 11:28:44;;;;;;;5.60;5.00;;;27.20;99.90;;;;;;5012456;28;20409;-83
2022/08/19 11:31:16;;;;;;;8.32;6.50;;;27.30;99.90;;;;;;5013345;28;20108;-82
2022/08/19 11:33:42;;;;;;;7.07;5.22;;;27.30;99.90;;;;;;5013573;28;20042;-82
2022/08/19 11:36:09;;;;;;;6.55;5.72;;;27.50;99.90;;;;;;5012604;28;20037;-79
2022/08/19 11:38:36;;;;;;;6.68;5.20;;;27.40;99.90;;;;;;5016445;28;20046;-79
2022/08/19 11:41:05;;;;;;;7.47;6.35;;;27.30;99.90;;;;;;5017291;28;20046;-82
2022/08/19 11:43:31;;;;;;;5.75;5.25;;;27.30;99.90;;;;;;5017268;28;20458;-83
2022/08/19 11:45:57;;;;;;;7.97;6.90;;;27.40;99.90;;;;;;5016372;28;20050;-84
2022/08/19 11:48:25;;;;;;;6.05;5.00;;;27.50;99.90;;;;;;5000099;28;20050;-86
2022/08/19 11:50:52;;;;;;;7.60;6.80;;;27.80;99.90;;;;;;5015697;28;20494;-83
2022/08/19 11:53:19;;;;;;;5.80;5.20;;;27.90;99.50;;;;;;4984345;28;20053;-81
2022/08/19 11:55:49;;;;;;;7.03;5.93;;;28.00;99.90;;;;;;5016100;28;20402;-84
2022/08/19 11:58:16;;;;;;;5.75;4.72;;;28.00;99.90;;;;;;5016150;28;20144;-83
2022/08/19 12:00:44;;;;;;;6.40;5.65;;;28.10;99.90;;;;;;5016986;28;20057;-79
2022/08/19 12:03:12;;;;;;;5.80;5.20;;;28.10;99.90;;;;;;5015912;28;20038;-83
2022/08/19 12:05:40;;;;;;;6.43;5.22;;;28.20;99.90;;;;;;5016710;28;20490;-79
2022/08/19 12:08:06;;;;;;;7.90;5.40;;;28.30;99.80;;;;;;5016694;28;20089;-79
2022/08/19 12:10:33;;;;;;;6.03;5.43;;;28.40;99.80;;;;;;5016630;28;20080;-79
2022/08/19 12:12:59;;;;;;;6.05;5.15;;;28.40;99.70;;;;;;5021828;28;20052;-80
2022/08/19 12:15:27;;;;;;;6.00;5.40;;;28.50;99.40;;;;;;5016635;28;20045;-81
2022/08/19 12:17:55;;;;;;;7.13;5.47;;;28.50;98.50;;;;;;5016557;28;20129;-82
2022/08/19 12:20:20;;;;;;;5.95;5.28;;;28.60;98.70;;;;;;5016584;28;20050;-82
2022/08/19 12:22:46;;;;;;;8.93;5.80;;;28.70;99.00;;;;;;5015436;28;20041;-81
2022/08/19 12:25:12;;;;;;;5.73;5.13;;;28.70;99.00;;;;;;5016543;28;20479;-79
2022/08/19 12:27:38;;;;;;;5.72;4.97;;;28.90;98.80;;;;;;5016472;28;20092;-76
2022/08/19 12:30:06;;;;;;;5.47;4.55;;;29.00;98.10;;;;;;5016398;28;20042;-77
2022/08/19 12:32:32;;;;;;;6.18;5.50;;;29.00;97.80;;;;;;5015304;28;20128;-80
2022/08/19 12:34:58;;;;;;;8.30;4.80;;;29.10;97.80;;;;;;5016362;28;20049;-84
2022/08/19 12:37:24;;;;;;;5.90;5.27;;;29.30;98.00;;;;;;5015219;28;20121;-81
2022/08/19 12:39:49;;;;;;;9.25;4.63;;;29.40;97.60;;;;;;5016322;28;20085;-76
2022/08/19 12:42:15;;;;;;;8.00;5.40;;;29.40;97.50;;;;;;5016105;28;20041;-77
2022/08/19 12:44:42;;;;;;;5.47;4.20;;;29.50;97.50;;;;;;5016133;28;20289;-78
2022/08/19 12:47:10;;;;;;;5.22;4.15;;;29.50;97.40;;;;;;5016110;28;20125;-79
2022/08/19 12:49:39;;;;;;;5.32;3.60;;;29.60;96.90;;;;;;5015237;28;20079;-76
2022/08/19 12:52:07;;;;;;;5.05;3.97;;;29.70;96.80;;;;;;5015978;28;20046;-78
2022/08/19 12:54:32;;;;;;;5.03;4.20;;;29.80;97.00;;;;;;5016105;28;20053;-78
2022/08/19 12:56:59;;;;;;;7.28;4.78;;;29.90;96.60;;;;;;5015509;28;20038;-76
2022/08/19 12:59:25;;;;;;;;;;;29.90;96.00;;;;;;5016278;28;20054;-80